Time;durP1;ratioP1;P1;durP2;ratioP2;P2;SDS_P1;SDS_P2;PMS_P1;PMS_P2;Temp;Humidity;BMP_temperature;BMP_pressure;BME280_temperature;BME280_humidity;BME280_pressure;Samples;Min_cycle;Max_cycle;Signal;HPM_P1;HPM_P2
2023/01/08 00:00:11;;;;;;;0.70;0.70;;;;;;;;;;6189818;23;20725;-78
2023/01/08 00:02:39;;;;;;;0.70;0.70;;;;;;;;;;6215093;23;20412;-79
2023/01/08 00:05:07;;;;;;;0.80;0.80;;;;;;;;;;6188599;23;20403;-79
2023/01/08 00:07:34;;;;;;;0.80;0.80;;;;;;;;;;6164930;23;20400;-80
2023/01/08 00:10:01;;;;;;;0.70;0.70;;;;;;;;;;6164398;23;20745;-83
2023/01/08 00:12:28;;;;;;;0.70;0.70;;;;;;;;;;6215604;23;20380;-81
2023/01/08 00:14:55;;;;;;;0.80;0.80;;;;;;;;;;6216074;23;20428;-81
2023/01/08 00:17:22;;;;;;;0.70;0.70;;;;;;;;;;6190074;23;20837;-79
2023/01/08 00:19:50;;;;;;;0.70;0.70;;;;;;;;;;6188005;23;20406;-80
2023/01/08 00:22:18;;;;;;;0.70;0.70;;;;;;;;;;6189338;23;20447;-78
2023/01/08 00:24:45;;;;;;;0.70;0.60;;;;;;;;;;6188030;23;20806;-80
2023/01/08 00:27:12;;;;;;;0.70;0.60;;;;;;;;;;6189657;23;20464;-80
2023/01/08 00:29:39;;;;;;;0.70;0.70;;;;;;;;;;6215823;23;20381;-81
2023/01/08 00:32:06;;;;;;;0.80;0.80;;;;;;;;;;6217052;23;20430;-81
2023/01/08 00:34:33;;;;;;;0.70;0.67;;;;;;;;;;6189597;23;20951;-80
2023/01/08 00:37:01;;;;;;;0.70;0.70;;;;;;;;;;6189388;23;20869;-82
2023/01/08 00:39:27;;;;;;;0.70;0.70;;;;;;;;;;6187886;23;20416;-79
2023/01/08 00:41:54;;;;;;;0.70;0.60;;;;;;;;;;6215307;23;20373;-79
2023/01/08 00:44:21;;;;;;;0.70;0.70;;;;;;;;;;6189024;23;20427;-78
2023/01/08 00:46:48;;;;;;;0.77;0.77;;;;;;;;;;6216014;23;20502;-79
2023/01/08 00:49:15;;;;;;;0.80;0.80;;;;;;;;;;6215559;23;20789;-80
2023/01/08 00:51:42;;;;;;;0.70;0.70;;;;;;;;;;6215128;23;20373;-79
2023/01/08 00:54:11;;;;;;;0.70;0.70;;;;;;;;;;6189427;23;20796;-79
2023/01/08 00:56:38;;;;;;;0.70;0.70;;;;;;;;;;6189598;23;20439;-81
2023/01/08 00:59:05;;;;;;;0.80;0.80;;;;;;;;;;6215869;23;20495;-82
2023/01/08 01:01:32;;;;;;;0.70;0.70;;;;;;;;;;6189345;23;20498;-79
2023/01/08 01:03:59;;;;;;;0.70;0.70;;;;;;;;;;6189504;23;20880;-80
2023/01/08 01:06:26;;;;;;;0.70;0.70;;;;;;;;;;6189753;23;20435;-79
2023/01/08 01:08:53;;;;;;;0.70;0.70;;;;;;;;;;6216165;23;20394;-80
2023/01/08 01:11:23;;;;;;;0.70;0.70;;;;;;;;;;6187500;23;20490;-78
2023/01/08 01:13:50;;;;;;;0.90;0.90;;;;;;;;;;6214069;23;20383;-81
2023/01/08 01:16:17;;;;;;;0.70;0.70;;;;;;;;;;6189535;23;20449;-78
2023/01/08 01:18:43;;;;;;;0.70;0.60;;;;;;;;;;6215895;23;20408;-80
2023/01/08 01:21:11;;;;;;;0.73;0.73;;;;;;;;;;6215118;23;20392;-78
2023/01/08 01:23:39;;;;;;;1.27;1.17;;;;;;;;;;6190087;23;20398;-79
2023/01/08 01:26:12;;;;;;;0.83;0.83;;;;;;;;;;6188327;23;20400;-79
2023/01/08 01:28:40;;;;;;;0.70;0.70;;;;;;;;;;6215504;23;20382;-80
2023/01/08 01:31:09;;;;;;;0.63;0.60;;;;;;;;;;6189280;23;20403;-79
2023/01/08 01:33:36;;;;;;;0.70;0.70;;;;;;;;;;6215535;23;20933;-80
2023/01/08 01:36:03;;;;;;;0.70;0.70;;;;;;;;;;6188968;23;20426;-79
2023/01/08 01:38:30;;;;;;;0.70;0.60;;;;;;;;;;6189154;23;20422;-80
2023/01/08 01:40:57;;;;;;;0.70;0.60;;;;;;;;;;6188435;23;20409;-80
2023/01/08 01:43:37;;;;;;;0.70;0.70;;;;;;;;;;6163541;23;20455;-81
2023/01/08 01:46:21;;;;;;;0.70;0.67;;;;;;;;;;6215760;23;20370;-80
2023/01/08 01:48:50;;;;;;;0.70;0.60;;;;;;;;;;6188165;23;20432;-79
2023/01/08 01:51:18;;;;;;;0.70;0.70;;;;;;;;;;6213355;23;20420;-79
2023/01/08 01:53:44;;;;;;;0.70;0.70;;;;;;;;;;6213762;23;20392;-78
2023/01/08 01:56:11;;;;;;;0.70;0.70;;;;;;;;;;6214022;23;20491;-80
2023/01/08 01:58:38;;;;;;;0.70;0.60;;;;;;;;;;6213798;23;20705;-80
2023/01/08 02:01:07;;;;;;;0.70;0.60;;;;;;;;;;6214876;23;20385;-82
2023/01/08 02:03:35;;;;;;;0.70;0.70;;;;;;;;;;6215377;23;20411;-82
2023/01/08 02:06:06;;;;;;;0.70;0.60;;;;;;;;;;6189376;23;20396;-83
2023/01/08 02:08:37;;;;;;;0.70;0.70;;;;;;;;;;6188530;23;20887;-82
2023/01/08 02:11:06;;;;;;;1.47;1.37;;;;;;;;;;6215269;23;20378;-80
2023/01/08 02:13:35;;;;;;;0.70;0.60;;;;;;;;;;6215323;23;20496;-83
2023/01/08 02:16:07;;;;;;;0.70;0.60;;;;;;;;;;6164026;23;20958;-84
2023/01/08 02:18:37;;;;;;;0.80;0.80;;;;;;;;;;6214736;23;20508;-82
2023/01/08 02:21:07;;;;;;;0.70;0.60;;;;;;;;;;6187472;23;20376;-83
2023/01/08 02:23:40;;;;;;;0.60;0.60;;;;;;;;;;6188760;23;20483;-83
2023/01/08 02:26:14;;;;;;;0.80;0.80;;;;;;;;;;6188387;23;20405;-84
2023/01/08 02:28:43;;;;;;;0.63;0.60;;;;;;;;;;6192185;23;20435;-84
2023/01/08 02:31:11;;;;;;;0.77;0.77;;;;;;;;;;6228211;23;20384;-81
2023/01/08 02:33:39;;;;;;;0.70;0.70;;;;;;;;;;6203529;23;20393;-82
2023/01/08 02:36:24;;;;;;;0.70;0.60;;;;;;;;;;6228498;23;20429;-83
2023/01/08 02:39:05;;;;;;;1.83;1.63;;;;;;;;;;6196327;23;20378;-84
2023/01/08 02:41:39;;;;;;;0.70;0.70;;;;;;;;;;6190138;23;20469;-85
2023/01/08 02:44:06;;;;;;;0.70;0.60;;;;;;;;;;6191803;23;20381;-81
2023/01/08 02:46:34;;;;;;;0.70;0.60;;;;;;;;;;6193585;23;20445;-83
2023/01/08 02:49:03;;;;;;;0.60;0.60;;;;;;;;;;6192545;23;20455;-84
2023/01/08 02:51:32;;;;;;;0.70;0.60;;;;;;;;;;6191085;23;20718;-85
2023/01/08 02:54:01;;;;;;;5.80;1.23;;;;;;;;;;6217497;23;20488;-85
2023/01/08 02:56:29;;;;;;;0.70;0.70;;;;;;;;;;6163787;23;20436;-86
2023/01/08 02:58:58;;;;;;;0.70;0.70;;;;;;;;;;6188166;23;20377;-85
2023/01/08 03:01:26;;;;;;;0.70;0.70;;;;;;;;;;6187859;23;20433;-86
2023/01/08 03:03:54;;;;;;;0.70;0.60;;;;;;;;;;6215030;23;20415;-85
2023/01/08 03:06:24;;;;;;;1.10;1.00;;;;;;;;;;6193849;23;20404;-85
2023/01/08 03:08:51;;;;;;;0.80;0.80;;;;;;;;;;6190521;23;20421;-84
2023/01/08 03:11:19;;;;;;;0.70;0.70;;;;;;;;;;6214999;23;20392;-87
2023/01/08 03:13:49;;;;;;;3.73;1.93;;;;;;;;;;6188915;23;20459;-86
2023/01/08 03:16:20;;;;;;;0.70;0.60;;;;;;;;;;6215418;23;20836;-83
2023/01/08 03:18:50;;;;;;;0.70;0.60;;;;;;;;;;6190567;23;20739;-86
2023/01/08 03:21:16;;;;;;;0.70;0.70;;;;;;;;;;6191164;23;20504;-86
2023/01/08 03:23:44;;;;;;;0.63;0.60;;;;;;;;;;6190351;23;20424;-88
2023/01/08 03:26:12;;;;;;;0.60;0.60;;;;;;;;;;6189323;23;20768;-86
2023/01/08 03:28:43;;;;;;;0.70;0.60;;;;;;;;;;6215211;23;20389;-86
2023/01/08 03:31:14;;;;;;;0.70;0.67;;;;;;;;;;6215608;23;20396;-88
2023/01/08 03:33:53;;;;;;;0.70;0.60;;;;;;;;;;6190812;23;20424;-85
2023/01/08 03:36:27;;;;;;;0.70;0.60;;;;;;;;;;6214820;23;20443;-84
2023/01/08 03:39:18;;;;;;;1.00;0.90;;;;;;;;;;6215242;23;20392;-86
2023/01/08 03:41:47;;;;;;;0.73;0.73;;;;;;;;;;6188005;23;20387;-85
2023/01/08 03:44:15;;;;;;;0.80;0.80;;;;;;;;;;6214593;23;20452;-85
2023/01/08 03:46:46;;;;;;;0.67;0.60;;;;;;;;;;6191380;23;20408;-85
2023/01/08 03:49:15;;;;;;;0.60;0.60;;;;;;;;;;6188057;23;20760;-85
2023/01/08 03:51:44;;;;;;;0.70;0.70;;;;;;;;;;6188485;23;20408;-84
2023/01/08 03:54:13;;;;;;;0.70;0.70;;;;;;;;;;6214824;23;20424;-84
2023/01/08 03:56:39;;;;;;;0.70;0.60;;;;;;;;;;6215117;23;20527;-83
2023/01/08 03:59:06;;;;;;;0.70;0.70;;;;;;;;;;6214710;23;20482;-86
2023/01/08 04:01:34;;;;;;;0.80;0.80;;;;;;;;;;6215407;23;20392;-85
2023/01/08 04:04:01;;;;;;;0.70;0.70;;;;;;;;;;6191824;23;20413;-83
2023/01/08 04:06:30;;;;;;;0.70;0.70;;;;;;;;;;6199946;23;20389;-84
2023/01/08 04:08:58;;;;;;;0.70;0.60;;;;;;;;;;6196223;23;20412;-84
2023/01/08 04:11:26;;;;;;;0.70;0.70;;;;;;;;;;6197604;23;20511;-80
2023/01/08 04:13:54;;;;;;;0.70;0.70;;;;;;;;;;6225942;22;20399;-82
2023/01/08 04:16:23;;;;;;;0.63;0.60;;;;;;;;;;6219601;23;20747;-81
2023/01/08 04:18:51;;;;;;;0.70;0.70;;;;;;;;;;6194920;23;20460;-83
2023/01/08 04:21:21;;;;;;;0.63;0.63;;;;;;;;;;6220429;23;20380;-83
2023/01/08 04:23:51;;;;;;;0.60;0.60;;;;;;;;;;6218952;23;20877;-83
2023/01/08 04:26:23;;;;;;;0.60;0.60;;;;;;;;;;6202591;23;20415;-83
2023/01/08 04:28:51;;;;;;;0.60;0.60;;;;;;;;;;6225153;23;20397;-83
2023/01/08 04:31:23;;;;;;;0.60;0.60;;;;;;;;;;6194043;23;20380;-84
2023/01/08 04:33:56;;;;;;;0.70;0.70;;;;;;;;;;6223967;23;20411;-83
2023/01/08 04:36:24;;;;;;;0.60;0.60;;;;;;;;;;6172520;23;20437;-82
2023/01/08 04:38:53;;;;;;;0.60;0.60;;;;;;;;;;6172204;23;20438;-84
2023/01/08 04:41:20;;;;;;;0.60;0.60;;;;;;;;;;6195572;23;20886;-85
2023/01/08 04:43:46;;;;;;;0.70;0.70;;;;;;;;;;6192987;23;20757;-83
2023/01/08 04:46:13;;;;;;;0.70;0.60;;;;;;;;;;6218668;23;20385;-83
2023/01/08 04:48:41;;;;;;;0.60;0.60;;;;;;;;;;6217437;23;20448;-81
2023/01/08 04:51:08;;;;;;;0.67;0.60;;;;;;;;;;6220729;23;20420;-80
2023/01/08 04:53:36;;;;;;;0.70;0.70;;;;;;;;;;6198863;23;20416;-82
2023/01/08 04:56:06;;;;;;;0.60;0.60;;;;;;;;;;6167414;23;20432;-83
2023/01/08 04:58:35;;;;;;;0.60;0.60;;;;;;;;;;6168587;23;20914;-81
2023/01/08 05:01:08;;;;;;;0.60;0.60;;;;;;;;;;6219461;23;20446;-81
2023/01/08 05:03:36;;;;;;;0.60;0.60;;;;;;;;;;6197936;23;20409;-82
2023/01/08 05:06:03;;;;;;;0.70;0.67;;;;;;;;;;6221343;23;20393;-82
2023/01/08 05:08:51;;;;;;;0.70;0.70;;;;;;;;;;6195919;23;20885;-81
2023/01/08 05:11:20;;;;;;;0.60;0.60;;;;;;;;;;6195125;23;20413;-81
2023/01/08 05:13:47;;;;;;;0.60;0.60;;;;;;;;;;6203062;23;20400;-82
2023/01/08 05:16:14;;;;;;;0.60;0.60;;;;;;;;;;6166634;23;20433;-80
2023/01/08 05:18:41;;;;;;;0.70;0.70;;;;;;;;;;6217227;23;20444;-81
2023/01/08 05:21:10;;;;;;;0.70;0.70;;;;;;;;;;6220327;23;20383;-79
2023/01/08 05:23:49;;;;;;;0.67;0.60;;;;;;;;;;6189870;23;20401;-81
2023/01/08 05:26:18;;;;;;;0.70;0.60;;;;;;;;;;6189906;23;20468;-82
2023/01/08 05:28:50;;;;;;;0.70;0.60;;;;;;;;;;6173148;23;20401;-83
2023/01/08 05:31:17;;;;;;;0.70;0.70;;;;;;;;;;6192113;23;20423;-82
2023/01/08 05:33:47;;;;;;;0.60;0.60;;;;;;;;;;6164902;23;20507;-82
2023/01/08 05:36:19;;;;;;;0.60;0.60;;;;;;;;;;6189453;23;21216;-82
2023/01/08 05:38:46;;;;;;;0.70;0.60;;;;;;;;;;6196627;23;20777;-80
2023/01/08 05:41:13;;;;;;;0.70;0.70;;;;;;;;;;6218138;23;20396;-79
2023/01/08 05:43:40;;;;;;;0.63;0.60;;;;;;;;;;6215282;23;20392;-82
2023/01/08 05:46:08;;;;;;;0.67;0.60;;;;;;;;;;6215443;23;20861;-81
2023/01/08 05:48:36;;;;;;;0.70;0.70;;;;;;;;;;6191382;23;20914;-79
2023/01/08 05:51:09;;;;;;;0.60;0.60;;;;;;;;;;6193940;23;20385;-81
2023/01/08 05:53:42;;;;;;;0.60;0.60;;;;;;;;;;6215829;23;20380;-81
2023/01/08 05:56:13;;;;;;;0.70;0.70;;;;;;;;;;6190256;23;20430;-79
2023/01/08 05:58:45;;;;;;;0.70;0.70;;;;;;;;;;6189071;23;20385;-78
2023/01/08 06:01:19;;;;;;;0.70;0.60;;;;;;;;;;6165333;23;20862;-83
2023/01/08 06:03:49;;;;;;;0.60;0.60;;;;;;;;;;6216160;23;20584;-83
2023/01/08 06:06:26;;;;;;;0.60;0.60;;;;;;;;;;6188691;23;20418;-81
2023/01/08 06:08:56;;;;;;;0.70;0.63;;;;;;;;;;6215172;23;20834;-80
2023/01/08 06:11:23;;;;;;;0.60;0.60;;;;;;;;;;6215113;23;20384;-83
2023/01/08 06:13:50;;;;;;;0.70;0.60;;;;;;;;;;6163756;23;20499;-82
2023/01/08 06:16:19;;;;;;;0.60;0.60;;;;;;;;;;6214800;23;20421;-82
2023/01/08 06:18:46;;;;;;;0.60;0.60;;;;;;;;;;6214356;23;20818;-83
2023/01/08 06:21:14;;;;;;;0.60;0.60;;;;;;;;;;6214920;23;20831;-83
2023/01/08 06:23:43;;;;;;;0.70;0.70;;;;;;;;;;6215864;23;20389;-82
2023/01/08 06:26:09;;;;;;;0.70;0.70;;;;;;;;;;6187915;23;20387;-81
2023/01/08 06:28:37;;;;;;;0.70;0.70;;;;;;;;;;6215020;23;20439;-82
2023/01/08 06:31:08;;;;;;;0.60;0.60;;;;;;;;;;6188287;23;20412;-82
2023/01/08 06:33:39;;;;;;;0.60;0.60;;;;;;;;;;6163920;23;20436;-83
2023/01/08 06:36:11;;;;;;;0.70;0.70;;;;;;;;;;6214186;23;20432;-82
2023/01/08 06:38:39;;;;;;;1.20;1.10;;;;;;;;;;6188613;23;20685;-83
2023/01/08 06:41:07;;;;;;;0.70;0.70;;;;;;;;;;6189170;23;20716;-82
2023/01/08 06:43:34;;;;;;;0.67;0.60;;;;;;;;;;6217236;23;20386;-84
2023/01/08 06:46:02;;;;;;;0.70;0.60;;;;;;;;;;6165501;23;20447;-81
2023/01/08 06:48:29;;;;;;;0.70;0.70;;;;;;;;;;6192852;23;20441;-80
2023/01/08 06:50:59;;;;;;;0.70;0.70;;;;;;;;;;6222476;23;20483;-79
2023/01/08 06:53:26;;;;;;;0.67;0.60;;;;;;;;;;6189300;23;20886;-80
2023/01/08 06:55:55;;;;;;;0.80;0.80;;;;;;;;;;6190334;23;20482;-80
2023/01/08 06:58:23;;;;;;;0.63;0.60;;;;;;;;;;6192490;23;20462;-81
2023/01/08 07:00:50;;;;;;;0.63;0.63;;;;;;;;;;6221075;23;20382;-78
2023/01/08 07:03:16;;;;;;;0.70;0.70;;;;;;;;;;6192383;23;20452;-80
2023/01/08 07:05:45;;;;;;;0.70;0.70;;;;;;;;;;6219072;23;20388;-79
2023/01/08 07:08:14;;;;;;;0.60;0.60;;;;;;;;;;6214800;23;20431;-81
2023/01/08 07:10:42;;;;;;;0.63;0.60;;;;;;;;;;6163758;23;20447;-82
2023/01/08 07:13:11;;;;;;;0.70;0.60;;;;;;;;;;6163354;23;20412;-82
2023/01/08 07:15:38;;;;;;;0.70;0.60;;;;;;;;;;6213599;23;20730;-82
2023/01/08 07:18:06;;;;;;;0.60;0.60;;;;;;;;;;6186639;23;20515;-81
2023/01/08 07:20:33;;;;;;;0.70;0.67;;;;;;;;;;6188870;23;20393;-82
2023/01/08 07:23:00;;;;;;;0.70;0.60;;;;;;;;;;6215144;23;20447;-83
2023/01/08 07:25:29;;;;;;;0.70;0.60;;;;;;;;;;6188925;23;20394;-84
2023/01/08 07:27:57;;;;;;;0.70;0.70;;;;;;;;;;6188485;23;20844;-84
2023/01/08 07:30:24;;;;;;;0.70;0.60;;;;;;;;;;6188340;23;20730;-83
2023/01/08 07:32:59;;;;;;;0.70;0.60;;;;;;;;;;6163607;23;20822;-82
2023/01/08 07:35:26;;;;;;;0.60;0.60;;;;;;;;;;6188562;23;20371;-84
2023/01/08 07:37:53;;;;;;;0.60;0.60;;;;;;;;;;6163105;23;20470;-84
2023/01/08 07:40:20;;;;;;;0.70;0.70;;;;;;;;;;6188601;23;20891;-85
2023/01/08 07:42:55;;;;;;;0.70;0.60;;;;;;;;;;6188022;23;20870;-81
2023/01/08 07:45:22;;;;;;;0.70;0.70;;;;;;;;;;6213976;23;20822;-85
2023/01/08 07:47:49;;;;;;;0.60;0.60;;;;;;;;;;6189243;23;20903;-85
2023/01/08 07:50:16;;;;;;;0.70;0.70;;;;;;;;;;6189031;23;20417;-84
2023/01/08 07:53:04;;;;;;;0.60;0.60;;;;;;;;;;6216619;23;20426;-83
2023/01/08 07:55:31;;;;;;;0.67;0.60;;;;;;;;;;6164645;23;20407;-82
2023/01/08 07:57:59;;;;;;;0.70;0.60;;;;;;;;;;6189209;23;20438;-85
2023/01/08 08:00:25;;;;;;;0.60;0.60;;;;;;;;;;6215641;23;20390;-85
2023/01/08 08:02:52;;;;;;;0.60;0.60;;;;;;;;;;6216323;23;20420;-84
2023/01/08 08:05:19;;;;;;;0.60;0.60;;;;;;;;;;6189317;23;20526;-81
2023/01/08 08:07:46;;;;;;;0.60;0.60;;;;;;;;;;6215276;23;20441;-86
2023/01/08 08:10:13;;;;;;;0.63;0.60;;;;;;;;;;6215692;23;20728;-84
2023/01/08 08:12:43;;;;;;;0.73;0.70;;;;;;;;;;6189926;23;20452;-84
2023/01/08 08:15:11;;;;;;;0.60;0.60;;;;;;;;;;6189646;23;20439;-84
2023/01/08 08:17:38;;;;;;;0.60;0.60;;;;;;;;;;6216703;23;20434;-86
2023/01/08 08:20:06;;;;;;;0.70;0.60;;;;;;;;;;6189455;23;20414;-86
2023/01/08 08:22:33;;;;;;;0.60;0.60;;;;;;;;;;6216314;23;20394;-84
2023/01/08 08:25:00;;;;;;;0.70;0.60;;;;;;;;;;6215584;23;20396;-82
2023/01/08 08:27:28;;;;;;;1.10;1.00;;;;;;;;;;6188831;23;20403;-85
2023/01/08 08:29:54;;;;;;;0.60;0.60;;;;;;;;;;6188622;23;20438;-84
2023/01/08 08:32:23;;;;;;;0.60;0.60;;;;;;;;;;6188450;23;20904;-86
2023/01/08 08:34:50;;;;;;;0.60;0.60;;;;;;;;;;6189928;23;20383;-86
2023/01/08 08:37:17;;;;;;;0.60;0.60;;;;;;;;;;6216381;23;20748;-85
2023/01/08 08:39:44;;;;;;;0.60;0.60;;;;;;;;;;6215940;23;20380;-83
2023/01/08 08:42:11;;;;;;;0.63;0.60;;;;;;;;;;6189634;23;20382;-83
2023/01/08 08:44:38;;;;;;;0.70;0.60;;;;;;;;;;6213918;23;20427;-85
2023/01/08 08:47:08;;;;;;;0.70;0.70;;;;;;;;;;6189293;23;20411;-86
2023/01/08 08:49:36;;;;;;;0.60;0.60;;;;;;;;;;6216303;23;20696;-82
2023/01/08 08:52:03;;;;;;;0.70;0.60;;;;;;;;;;6188766;23;20398;-85
2023/01/08 08:54:30;;;;;;;0.60;0.60;;;;;;;;;;6166068;23;20709;-85
2023/01/08 08:56:58;;;;;;;0.60;0.60;;;;;;;;;;6211886;23;20733;-84
2023/01/08 08:59:26;;;;;;;0.60;0.60;;;;;;;;;;6214404;23;20382;-85
2023/01/08 09:01:53;;;;;;;0.60;0.50;;;;;;;;;;6214163;23;20398;-83
2023/01/08 09:04:23;;;;;;;0.70;0.60;;;;;;;;;;6213887;23;20412;-84
2023/01/08 09:06:52;;;;;;;0.60;0.60;;;;;;;;;;6187682;23;20388;-82
2023/01/08 09:09:18;;;;;;;0.70;0.60;;;;;;;;;;6188094;23;20450;-85
2023/01/08 09:11:45;;;;;;;0.60;0.60;;;;;;;;;;6162206;23;20461;-84
2023/01/08 09:14:13;;;;;;;0.60;0.60;;;;;;;;;;6212840;23;20683;-84
2023/01/08 09:16:39;;;;;;;0.70;0.60;;;;;;;;;;6186463;23;20932;-83
2023/01/08 09:19:06;;;;;;;0.60;0.60;;;;;;;;;;6214289;23;20410;-83
2023/01/08 09:21:33;;;;;;;0.70;0.60;;;;;;;;;;6162717;23;20412;-83
2023/01/08 09:24:02;;;;;;;0.60;0.60;;;;;;;;;;6213609;23;20399;-81
2023/01/08 09:26:29;;;;;;;1.00;0.90;;;;;;;;;;6213771;23;20395;-86
2023/01/08 09:28:57;;;;;;;0.70;0.60;;;;;;;;;;6186416;23;20462;-80
2023/01/08 09:31:24;;;;;;;0.70;0.63;;;;;;;;;;6213667;23;20378;-80
2023/01/08 09:33:51;;;;;;;0.60;0.60;;;;;;;;;;6187375;23;20420;-82
2023/01/08 09:36:18;;;;;;;0.80;0.80;;;;;;;;;;6187473;23;20388;-80
2023/01/08 09:38:44;;;;;;;0.70;0.60;;;;;;;;;;6186926;23;20397;-81
2023/01/08 09:41:19;;;;;;;0.70;0.67;;;;;;;;;;6213403;23;20483;-82
2023/01/08 09:43:47;;;;;;;0.70;0.60;;;;;;;;;;6211910;23;20404;-80
2023/01/08 09:46:17;;;;;;;0.93;0.93;;;;;;;;;;6186702;23;20408;-81
2023/01/08 09:48:45;;;;;;;0.60;0.60;;;;;;;;;;6189093;23;20435;-81
2023/01/08 09:51:13;;;;;;;0.70;0.70;;;;;;;;;;6187803;23;20417;-82
2023/01/08 09:53:41;;;;;;;0.70;0.70;;;;;;;;;;6186803;23;20408;-80
2023/01/08 09:56:10;;;;;;;0.60;0.50;;;;;;;;;;6213182;23;20439;-82
2023/01/08 09:58:39;;;;;;;0.70;0.70;;;;;;;;;;6212841;23;20500;-84
2023/01/08 10:01:09;;;;;;;0.60;0.60;;;;;;;;;;6186476;23;20384;-81
2023/01/08 10:03:39;;;;;;;0.97;0.97;;;;;;;;;;6186225;23;20912;-81
2023/01/08 10:06:09;;;;;;;0.70;0.70;;;;;;;;;;6213611;23;20369;-82
2023/01/08 10:08:37;;;;;;;0.70;0.70;;;;;;;;;;6213020;23;20853;-81
2023/01/08 10:11:04;;;;;;;0.60;0.60;;;;;;;;;;6186442;23;20476;-81
2023/01/08 10:13:35;;;;;;;2.40;2.30;;;;;;;;;;6213856;23;20386;-82
2023/01/08 10:16:06;;;;;;;0.80;0.80;;;;;;;;;;6163498;23;20415;-80
2023/01/08 10:18:33;;;;;;;0.70;0.70;;;;;;;;;;6161428;23;21200;-81
2023/01/08 10:21:00;;;;;;;0.67;0.60;;;;;;;;;;6214186;23;20401;-84
2023/01/08 10:23:27;;;;;;;0.70;0.60;;;;;;;;;;6215844;23;20377;-82
2023/01/08 10:25:55;;;;;;;1.27;1.20;;;;;;;;;;6213066;23;20855;-80
2023/01/08 10:28:22;;;;;;;4.17;1.13;;;;;;;;;;6187622;23;20912;-81
2023/01/08 10:30:50;;;;;;;0.60;0.60;;;;;;;;;;6188923;23;20499;-84
2023/01/08 10:33:19;;;;;;;0.60;0.60;;;;;;;;;;6187431;23;20990;-85
2023/01/08 10:35:52;;;;;;;0.70;0.60;;;;;;;;;;6189074;23;20382;-83
2023/01/08 10:38:24;;;;;;;0.70;0.60;;;;;;;;;;6214865;23;20450;-81
2023/01/08 10:40:51;;;;;;;0.73;0.73;;;;;;;;;;6193981;23;20835;-81
2023/01/08 10:43:19;;;;;;;0.70;0.60;;;;;;;;;;6195727;23;20469;-81
2023/01/08 10:45:54;;;;;;;0.67;0.63;;;;;;;;;;6193666;23;20382;-81
2023/01/08 10:48:24;;;;;;;0.73;0.73;;;;;;;;;;6196569;23;20444;-81
2023/01/08 10:51:02;;;;;;;0.80;0.80;;;;;;;;;;6197076;23;20399;-80
2023/01/08 10:53:32;;;;;;;0.70;0.67;;;;;;;;;;6191780;23;20413;-81
2023/01/08 10:56:00;;;;;;;0.70;0.70;;;;;;;;;;6191984;23;20408;-80
2023/01/08 10:58:28;;;;;;;0.70;0.70;;;;;;;;;;6218120;23;20427;-81
2023/01/08 11:00:56;;;;;;;0.83;0.83;;;;;;;;;;6220921;23;20664;-83
2023/01/08 11:03:26;;;;;;;0.70;0.60;;;;;;;;;;6224209;23;20397;-79
2023/01/08 11:05:53;;;;;;;0.70;0.60;;;;;;;;;;6174417;23;20433;-81
2023/01/08 11:08:20;;;;;;;0.70;0.70;;;;;;;;;;6199763;23;20886;-80
2023/01/08 11:10:52;;;;;;;0.77;0.77;;;;;;;;;;6221790;23;20381;-79
2023/01/08 11:13:19;;;;;;;0.70;0.70;;;;;;;;;;6174649;23;20442;-79
2023/01/08 11:15:56;;;;;;;0.70;0.70;;;;;;;;;;6214061;23;20392;-81
2023/01/08 11:18:26;;;;;;;0.70;0.67;;;;;;;;;;6188389;23;20496;-80
2023/01/08 11:21:04;;;;;;;0.80;0.80;;;;;;;;;;6213567;23;20398;-79
2023/01/08 11:23:32;;;;;;;0.70;0.70;;;;;;;;;;6187267;23;20456;-79
2023/01/08 11:26:02;;;;;;;0.70;0.70;;;;;;;;;;6188606;23;20410;-80
2023/01/08 11:28:32;;;;;;;0.70;0.70;;;;;;;;;;6215599;23;20467;-79
2023/01/08 11:31:01;;;;;;;0.70;0.60;;;;;;;;;;6188413;23;20463;-79
2023/01/08 11:33:31;;;;;;;0.80;0.80;;;;;;;;;;6189365;23;20458;-80
2023/01/08 11:36:00;;;;;;;1.10;1.00;;;;;;;;;;6188734;23;20902;-78
2023/01/08 11:38:28;;;;;;;0.70;0.70;;;;;;;;;;6189020;23;20426;-80
2023/01/08 11:41:02;;;;;;;0.70;0.70;;;;;;;;;;6216159;23;20411;-78
2023/01/08 11:43:35;;;;;;;1.20;1.10;;;;;;;;;;6214882;23;20379;-80
2023/01/08 11:46:21;;;;;;;0.70;0.70;;;;;;;;;;6215539;23;20379;-78
2023/01/08 11:49:00;;;;;;;0.70;0.70;;;;;;;;;;6217033;23;20748;-79
2023/01/08 11:51:38;;;;;;;0.77;0.77;;;;;;;;;;6212522;23;20387;-80
2023/01/08 11:54:14;;;;;;;0.70;0.70;;;;;;;;;;6213770;23;20381;-81
2023/01/08 11:56:52;;;;;;;0.70;0.60;;;;;;;;;;6214402;23;20388;-80
2023/01/08 11:59:24;;;;;;;0.70;0.60;;;;;;;;;;6188587;23;20867;-82
2023/01/08 12:01:57;;;;;;;0.70;0.60;;;;;;;;;;6215034;23;20394;-82
2023/01/08 12:04:36;;;;;;;0.70;0.60;;;;;;;;;;6164362;23;20443;-82
2023/01/08 12:07:10;;;;;;;0.70;0.67;;;;;;;;;;6215234;23;20388;-79
2023/01/08 12:09:39;;;;;;;0.70;0.60;;;;;;;;;;6187567;23;20393;-82
2023/01/08 12:12:15;;;;;;;0.70;0.70;;;;;;;;;;6214405;23;20389;-79
2023/01/08 12:14:47;;;;;;;0.70;0.70;;;;;;;;;;6187138;23;20461;-79
2023/01/08 12:17:29;;;;;;;0.60;0.53;;;;;;;;;;6212503;23;20417;-81
2023/01/08 12:20:05;;;;;;;0.70;0.60;;;;;;;;;;6212775;23;20417;-81
2023/01/08 12:22:37;;;;;;;0.70;0.60;;;;;;;;;;6186906;23;20401;-81
2023/01/08 12:25:19;;;;;;;0.67;0.60;;;;;;;;;;6162439;23;20447;-81
2023/01/08 12:27:53;;;;;;;0.70;0.60;;;;;;;;;;6163385;23;20494;-81
2023/01/08 12:30:26;;;;;;;0.97;0.90;;;;;;;;;;6162968;23;20788;-80
2023/01/08 12:32:55;;;;;;;0.73;0.73;;;;;;;;;;6213298;23;20416;-80
2023/01/08 12:35:24;;;;;;;0.70;0.60;;;;;;;;;;6215248;23;20488;-80
2023/01/08 12:37:55;;;;;;;0.70;0.70;;;;;;;;;;6213945;23;20476;-79
2023/01/08 12:40:23;;;;;;;0.70;0.70;;;;;;;;;;6213126;23;20389;-78
2023/01/08 12:42:50;;;;;;;0.70;0.70;;;;;;;;;;6187121;23;20442;-80
2023/01/08 12:45:27;;;;;;;0.70;0.70;;;;;;;;;;6213374;23;20432;-80
2023/01/08 12:47:55;;;;;;;0.70;0.63;;;;;;;;;;6187158;23;20990;-79
2023/01/08 12:50:33;;;;;;;0.67;0.60;;;;;;;;;;6213741;23;20447;-80
2023/01/08 12:53:02;;;;;;;0.60;0.60;;;;;;;;;;6213660;23;20409;-80
2023/01/08 12:55:32;;;;;;;0.70;0.60;;;;;;;;;;6187484;23;20453;-80
2023/01/08 12:58:07;;;;;;;0.70;0.70;;;;;;;;;;6213470;23;20786;-80
2023/01/08 13:00:38;;;;;;;0.70;0.70;;;;;;;;;;6213683;23;20736;-80
2023/01/08 13:03:10;;;;;;;0.60;0.60;;;;;;;;;;6186998;23;20443;-80
2023/01/08 13:05:40;;;;;;;0.70;0.60;;;;;;;;;;6213983;23;20405;-79
2023/01/08 13:08:20;;;;;;;0.60;0.60;;;;;;;;;;6186754;23;20771;-80
2023/01/08 13:10:48;;;;;;;0.67;0.60;;;;;;;;;;6186951;23;20775;-79
2023/01/08 13:13:24;;;;;;;0.67;0.60;;;;;;;;;;6212799;23;20393;-80
2023/01/08 13:15:51;;;;;;;0.70;0.70;;;;;;;;;;6212557;23;20860;-80
2023/01/08 13:18:18;;;;;;;0.70;0.60;;;;;;;;;;6162261;23;20995;-80
2023/01/08 13:20:55;;;;;;;1.30;1.20;;;;;;;;;;6186519;23;20413;-80
2023/01/08 13:23:23;;;;;;;0.70;0.70;;;;;;;;;;6188054;23;20392;-80
2023/01/08 13:25:51;;;;;;;0.70;0.60;;;;;;;;;;6187299;23;20401;-79
2023/01/08 13:28:26;;;;;;;0.70;0.70;;;;;;;;;;6187458;23;20745;-81
2023/01/08 13:30:54;;;;;;;0.60;0.60;;;;;;;;;;6213088;23;20498;-80
2023/01/08 13:33:36;;;;;;;0.67;0.60;;;;;;;;;;6161822;23;20826;-79
2023/01/08 13:36:21;;;;;;;0.70;0.63;;;;;;;;;;6163520;23;20416;-80
2023/01/08 13:39:03;;;;;;;0.70;0.60;;;;;;;;;;6187212;23;20423;-80
2023/01/08 13:41:30;;;;;;;0.70;0.70;;;;;;;;;;6187023;23;20436;-80
2023/01/08 13:43:59;;;;;;;0.70;0.70;;;;;;;;;;6186960;23;20708;-79
2023/01/08 13:46:27;;;;;;;0.70;0.63;;;;;;;;;;6213101;23;20394;-80
2023/01/08 13:48:58;;;;;;;0.70;0.70;;;;;;;;;;6162589;23;20528;-79
2023/01/08 13:51:37;;;;;;;0.70;0.70;;;;;;;;;;6186547;23;20374;-77
2023/01/08 13:54:14;;;;;;;0.70;0.70;;;;;;;;;;6213073;23;20871;-78
2023/01/08 13:56:42;;;;;;;0.70;0.70;;;;;;;;;;6213035;23;20714;-76
2023/01/08 13:59:17;;;;;;;0.70;0.60;;;;;;;;;;6185293;23;20443;-77
2023/01/08 14:01:50;;;;;;;0.70;0.70;;;;;;;;;;6216981;23;20410;-78
2023/01/08 14:04:19;;;;;;;0.67;0.60;;;;;;;;;;6187419;23;20416;-78
2023/01/08 14:06:46;;;;;;;0.70;0.70;;;;;;;;;;6186405;23;20380;-78
2023/01/08 14:09:19;;;;;;;1.37;1.27;;;;;;;;;;6186660;23;20828;-78
2023/01/08 14:11:47;;;;;;;0.70;0.63;;;;;;;;;;6185699;23;20420;-78
2023/01/08 14:14:15;;;;;;;0.70;0.70;;;;;;;;;;6186149;23;20437;-79
2023/01/08 14:16:42;;;;;;;0.80;0.70;;;;;;;;;;6212648;23;20455;-77
2023/01/08 14:19:12;;;;;;;0.70;0.70;;;;;;;;;;6212737;23;20457;-79
2023/01/08 14:21:39;;;;;;;0.70;0.70;;;;;;;;;;6186583;23;20422;-77
2023/01/08 14:24:06;;;;;;;0.70;0.70;;;;;;;;;;6213415;23;20378;-77
2023/01/08 14:26:35;;;;;;;0.70;0.70;;;;;;;;;;6186669;23;20386;-76
2023/01/08 14:29:03;;;;;;;0.70;0.60;;;;;;;;;;6186878;23;20537;-77
2023/01/08 14:31:30;;;;;;;0.70;0.60;;;;;;;;;;6213537;23;20817;-77
2023/01/08 14:33:58;;;;;;;0.70;0.60;;;;;;;;;;6187133;23;20780;-77
2023/01/08 14:36:25;;;;;;;0.70;0.60;;;;;;;;;;6187056;23;20866;-77
2023/01/08 14:38:53;;;;;;;0.60;0.60;;;;;;;;;;6214232;23;20435;-77
2023/01/08 14:42:40;;;;;;;0.70;0.70;;;;;;;;;;6186773;23;20383;-79
2023/01/08 14:44:17;;;;;;;0.70;0.70;;;;;;;;;;6186802;23;20417;-78
2023/01/08 14:46:52;;;;;;;0.70;0.60;;;;;;;;;;6215144;23;20398;-77
2023/01/08 14:49:23;;;;;;;0.70;0.67;;;;;;;;;;6214069;23;20459;-77
2023/01/08 14:51:51;;;;;;;0.70;0.70;;;;;;;;;;6213567;23;20717;-78
2023/01/08 14:54:20;;;;;;;0.70;0.60;;;;;;;;;;6188422;23;20477;-77
2023/01/08 14:56:50;;;;;;;0.70;0.60;;;;;;;;;;6187509;23;20385;-78